createdAt,value
2023-04-01T00:01:17.928Z,88.39
2023-04-01T00:04:21.357Z,87.71
2023-04-01T00:07:23.601Z,87.99
2023-04-01T00:10:25.832Z,87.36
2023-04-01T00:13:28.175Z,87.59
2023-04-01T00:16:30.421Z,88.31
2023-04-01T00:19:33.590Z,88.41
2023-04-01T00:22:36.205Z,89.47
2023-04-01T00:25:38.554Z,89.07
2023-04-01T00:28:41.798Z,89.52
2023-04-01T00:31:44.063Z,90.45
2023-04-01T00:34:46.523Z,91.44
2023-04-01T00:37:49.104Z,91.00
2023-04-01T00:40:58.311Z,90.85
2023-04-01T00:44:19.128Z,90.81
2023-04-01T00:47:23.252Z,91.20
2023-04-01T00:50:27.082Z,92.16
2023-04-01T00:53:30.803Z,92.23
2023-04-01T00:56:37.832Z,92.77
2023-04-01T00:59:46.148Z,93.05
2023-04-01T01:02:51.995Z,93.84
2023-04-01T01:06:12.941Z,94.31
2023-04-01T01:09:31.745Z,94.01
2023-04-01T01:12:41.863Z,94.06
2023-04-01T01:15:49.115Z,93.95
2023-04-01T01:19:10.580Z,94.71
2023-04-01T01:22:21.737Z,94.74
2023-04-01T01:25:46.978Z,95.88
2023-04-01T01:29:07.170Z,95.16
2023-04-01T01:32:43.482Z,95.52
2023-04-01T01:35:57.830Z,95.96
2023-04-01T01:39:00.085Z,96.00
2023-04-01T01:42:07.293Z,96.15
2023-04-01T01:45:12.928Z,96.35
2023-04-01T01:48:17.599Z,96.90
2023-04-01T01:51:21.655Z,96.88
2023-04-01T01:54:23.956Z,97.14
2023-04-01T01:57:32.532Z,97.03
2023-04-01T02:00:36.743Z,97.21
2023-04-01T02:03:41.410Z,97.21
2023-04-01T02:06:50.744Z,97.65
2023-04-01T02:09:54.678Z,97.25
2023-04-01T02:13:07.214Z,97.42
2023-04-01T02:16:17.032Z,97.71
2023-04-01T02:19:23.783Z,98.22
2023-04-01T02:22:35.830Z,98.32
2023-04-01T02:25:40.513Z,98.51
2023-04-01T02:28:45.283Z,98.49
2023-04-01T02:31:48.556Z,99.06
2023-04-01T02:34:51.544Z,99.00
2023-04-01T02:37:55.366Z,99.08
2023-04-01T02:41:01.495Z,99.21
2023-04-01T02:44:04.114Z,99.01
2023-04-01T02:47:06.391Z,99.31
2023-04-01T02:50:09.889Z,99.06
2023-04-01T02:53:12.978Z,99.62
2023-04-01T02:56:15.410Z,99.56
2023-04-01T02:59:17.698Z,99.50
2023-04-01T03:02:20.029Z,99.27
2023-04-01T03:05:22.497Z,98.84
2023-04-01T03:08:24.750Z,98.95
2023-04-01T03:11:27.298Z,99.26
2023-04-01T03:14:29.624Z,99.17
2023-04-01T03:17:32.479Z,98.68
2023-04-01T03:20:34.827Z,98.27
2023-04-01T03:23:37.047Z,98.71
2023-04-01T03:26:39.310Z,98.82
2023-04-01T03:29:42.139Z,99.14
2023-04-01T03:32:45.028Z,98.74
2023-04-01T03:35:47.438Z,99.16
2023-04-01T03:38:50.265Z,98.93
2023-04-01T03:41:59.112Z,99.47
2023-04-01T03:45:01.573Z,99.13
2023-04-01T03:48:04.203Z,99.03
2023-04-01T03:51:09.815Z,99.12
2023-04-01T03:54:12.444Z,99.09
2023-04-01T03:57:15.400Z,98.48
2023-04-01T04:00:18.042Z,98.66
2023-04-01T04:03:24.219Z,99.18
2023-04-01T04:06:27.397Z,99.21
2023-04-01T04:09:31.679Z,98.68
2023-04-01T04:12:34.066Z,99.00
2023-04-01T04:15:36.293Z,98.84
2023-04-01T04:18:38.537Z,98.63
2023-04-01T04:21:41.917Z,98.55
2023-04-01T04:24:44.242Z,98.68
2023-04-01T04:27:48.626Z,98.86
2023-04-01T04:30:51.418Z,98.78
2023-04-01T04:33:54.155Z,98.82
2023-04-01T04:36:56.757Z,98.60
2023-04-01T04:40:03.711Z,98.90
2023-04-01T04:43:07.104Z,98.62
2023-04-01T04:46:10.978Z,98.35
2023-04-01T04:49:14.210Z,98.63
2023-04-01T04:52:16.822Z,99.26
2023-04-01T04:55:19.259Z,99.25
2023-04-01T04:58:25.980Z,99.27
2023-04-01T05:01:28.944Z,99.22
2023-04-01T05:04:39.934Z,99.34
2023-04-01T05:07:45.319Z,99.61
2023-04-01T05:10:47.843Z,99.21
2023-04-01T05:13:51.350Z,99.62
2023-04-01T05:16:55.430Z,99.99
2023-04-01T05:20:05.291Z,99.85
2023-04-01T05:23:13.569Z,99.15
2023-04-01T05:26:16.128Z,98.65
2023-04-01T05:29:18.457Z,98.44
2023-04-01T05:32:23.737Z,98.07
2023-04-01T05:35:26.279Z,98.28
2023-04-01T05:38:28.623Z,98.33
2023-04-01T05:41:30.955Z,98.57
2023-04-01T05:44:33.256Z,98.17
2023-04-01T05:47:55.810Z,97.62
2023-04-01T05:50:58.083Z,97.20
2023-04-01T05:54:00.532Z,97.56
2023-04-01T05:57:03.333Z,97.57
2023-04-01T06:00:06.487Z,97.61
2023-04-01T06:03:14.634Z,97.68
2023-04-01T06:06:26.227Z,97.86
2023-04-01T06:09:31.414Z,98.17
2023-04-01T06:12:51.656Z,98.15
2023-04-01T06:16:30.601Z,97.24
2023-04-01T06:19:58.486Z,97.23
2023-04-01T06:23:03.605Z,97.18
2023-04-01T06:26:31.602Z,97.23
2023-04-01T06:29:44.901Z,97.67
2023-04-01T06:33:05.958Z,97.63
2023-04-01T06:36:16.740Z,96.07
2023-04-01T06:39:34.021Z,96.47
2023-04-01T06:42:59.746Z,96.33
2023-04-01T06:46:29.539Z,94.01
2023-04-01T06:50:24.913Z,93.18
2023-04-01T06:54:14.685Z,93.31
2023-04-01T06:57:54.242Z,93.25
2023-04-01T07:01:03.338Z,92.82
2023-04-01T07:04:12.936Z,93.08
2023-04-01T07:07:37.610Z,93.69
2023-04-01T07:10:52.933Z,93.07
2023-04-01T07:14:37.259Z,93.09
2023-04-01T07:17:42.417Z,93.67
2023-04-01T07:20:46.230Z,93.52
2023-04-01T07:23:50.345Z,92.76
2023-04-01T07:27:18.350Z,92.57
2023-04-01T07:30:23.817Z,93.23
2023-04-01T07:33:47.881Z,93.08
2023-04-01T07:37:02.425Z,92.72
2023-04-01T07:40:14.218Z,92.16
2023-04-01T07:43:28.517Z,92.42
2023-04-01T07:46:54.796Z,91.33
2023-04-01T07:50:23.762Z,92.18
2023-04-01T07:53:34.994Z,90.32
2023-04-01T07:56:48.710Z,90.89
2023-04-01T08:00:24.010Z,90.44
2023-04-01T08:03:46.793Z,90.19
2023-04-01T08:07:29.633Z,89.65
2023-04-01T08:11:03.896Z,89.07
2023-04-01T08:14:32.834Z,89.61
2023-04-01T08:17:56.461Z,88.40
2023-04-01T08:21:02.297Z,87.68
2023-04-01T08:24:22.586Z,88.75
2023-04-01T08:27:36.592Z,88.49
2023-04-01T08:31:04.693Z,88.47
2023-04-01T08:34:25.074Z,87.56
2023-04-01T08:37:33.106Z,86.53
2023-04-01T08:40:57.838Z,86.97
2023-04-01T08:44:16.874Z,87.82
2023-04-01T08:47:38.653Z,87.47
2023-04-01T08:50:59.641Z,86.89
2023-04-01T08:54:18.007Z,85.48
2023-04-01T08:57:52.059Z,85.08
2023-04-01T09:01:48.983Z,84.97
2023-04-01T09:05:32.833Z,84.14
2023-04-01T09:09:03.150Z,84.43
2023-04-01T09:12:26.829Z,84.33
2023-04-01T09:15:35.650Z,83.75
2023-04-01T09:18:59.524Z,83.41
2023-04-01T09:22:20.526Z,83.40
2023-04-01T09:25:31.873Z,81.21
2023-04-01T09:28:52.808Z,80.72
2023-04-01T09:32:13.608Z,78.57
2023-04-01T09:35:48.534Z,78.73
2023-04-01T09:39:20.710Z,77.05
2023-04-01T09:42:39.233Z,77.49
2023-04-01T09:46:13.157Z,76.26
2023-04-01T09:49:33.892Z,75.82
2023-04-01T09:53:12.747Z,75.83
2023-04-01T09:56:37.312Z,75.73
2023-04-01T10:00:16.772Z,74.34
2023-04-01T10:03:50.725Z,73.88
2023-04-01T10:07:11.374Z,72.28
2023-04-01T10:10:35.853Z,72.06
2023-04-01T10:14:15.897Z,70.59
2023-04-01T10:17:33.487Z,70.64
2023-04-01T10:20:35.704Z,69.46
2023-04-01T10:24:08.353Z,68.31
2023-04-01T10:27:34.484Z,69.39
2023-04-01T10:30:58.073Z,68.67
2023-04-01T10:34:15.642Z,68.04
2023-04-01T10:37:45.642Z,68.42
2023-04-01T10:41:06.710Z,69.73
2023-04-01T10:44:48.817Z,68.89
2023-04-01T10:48:28.912Z,68.51
2023-04-01T10:51:58.768Z,68.28
2023-04-01T10:55:41.674Z,68.30
2023-04-01T10:59:32.921Z,68.31
2023-04-01T11:03:23.839Z,68.22
2023-04-01T11:07:26.288Z,67.53
2023-04-01T11:10:34.756Z,66.77
2023-04-01T11:13:56.065Z,66.20
2023-04-01T11:17:20.314Z,66.42
2023-04-01T11:20:54.292Z,67.00
2023-04-01T11:24:13.859Z,66.44
2023-04-01T11:27:51.931Z,65.76
2023-04-01T11:31:22.217Z,64.43
2023-04-01T11:34:33.673Z,63.49
2023-04-01T11:38:08.135Z,62.05
2023-04-01T11:41:50.467Z,61.83
2023-04-01T11:45:31.635Z,62.99
2023-04-01T11:49:19.269Z,63.76
2023-04-01T11:53:08.787Z,62.09
2023-04-01T11:56:54.981Z,62.14
2023-04-01T12:00:00.271Z,61.58
2023-04-01T12:03:35.911Z,61.52
2023-04-01T12:07:22.683Z,60.69
2023-04-01T12:10:58.789Z,62.18
2023-04-01T12:14:22.812Z,63.05
2023-04-01T12:17:40.296Z,61.39
2023-04-01T12:21:14.763Z,62.77
2023-04-01T12:24:29.040Z,62.69
2023-04-01T12:27:42.520Z,62.68
2023-04-01T12:31:04.856Z,62.51
2023-04-01T12:34:37.247Z,63.10
2023-04-01T12:38:04.114Z,62.04
2023-04-01T12:41:40.184Z,62.14
2023-04-01T12:44:54.994Z,62.20
2023-04-01T12:48:15.597Z,62.87
2023-04-01T12:51:48.023Z,61.82
2023-04-01T12:55:01.216Z,63.25
2023-04-01T12:58:26.624Z,65.29
2023-04-01T13:01:55.688Z,65.58
2023-04-01T13:05:32.244Z,64.72
2023-04-01T13:08:57.862Z,62.27
2023-04-01T13:12:17.461Z,62.45
2023-04-01T13:15:57.016Z,63.09
2023-04-01T13:19:12.028Z,60.54
2023-04-01T13:22:52.462Z,59.91
2023-04-01T13:26:42.099Z,60.73
2023-04-01T13:29:55.968Z,60.76
2023-04-01T13:33:19.712Z,62.02
2023-04-01T13:36:40.719Z,65.40
2023-04-01T13:40:09.117Z,68.37
2023-04-01T13:43:30.936Z,71.24
2023-04-01T13:46:48.145Z,73.17
2023-04-01T13:50:23.792Z,75.30
2023-04-01T13:53:37.850Z,73.60
2023-04-01T13:56:46.109Z,75.13
2023-04-01T14:00:05.828Z,76.57
2023-04-01T14:03:32.226Z,75.72
2023-04-01T14:06:50.646Z,76.57
2023-04-01T14:10:10.906Z,80.62
2023-04-01T14:13:21.906Z,80.69
2023-04-01T14:16:24.111Z,73.21
2023-04-01T14:19:35.207Z,75.32
2023-04-01T14:23:06.048Z,75.49
2023-04-01T14:26:11.182Z,73.95
2023-04-01T14:29:54.703Z,72.02
2023-04-01T14:33:21.599Z,69.55
2023-04-01T14:36:47.639Z,69.95
2023-04-01T14:40:01.116Z,70.67
2023-04-01T14:43:09.013Z,71.03
2023-04-01T14:46:29.921Z,68.98
2023-04-01T14:49:36.929Z,69.89
2023-04-01T14:52:42.485Z,70.85
2023-04-01T14:55:44.639Z,72.05
2023-04-01T14:58:51.329Z,71.75
2023-04-01T15:02:09.957Z,72.66
2023-04-01T15:05:46.621Z,74.33
2023-04-01T15:09:04.657Z,75.71
2023-04-01T15:12:36.025Z,76.39
2023-04-01T15:15:53.188Z,77.43
2023-04-01T15:19:16.104Z,78.39
2023-04-01T15:22:39.871Z,79.14
2023-04-01T15:26:06.726Z,80.15
2023-04-01T15:29:44.368Z,81.66
2023-04-01T15:33:15.126Z,80.87
2023-04-01T15:36:29.448Z,81.25
2023-04-01T15:39:40.529Z,80.55
2023-04-01T15:43:01.249Z,79.73
2023-04-01T15:46:40.466Z,79.52
2023-04-01T15:49:47.283Z,78.23
2023-04-01T15:53:34.255Z,78.58
2023-04-01T15:56:55.216Z,79.00
2023-04-01T16:00:06.306Z,79.22
2023-04-01T16:03:27.277Z,77.50
2023-04-01T16:06:38.959Z,78.64
2023-04-01T16:09:52.995Z,76.48
2023-04-01T16:13:14.140Z,77.23
2023-04-01T16:16:30.584Z,77.37
2023-04-01T16:19:38.618Z,78.13
2023-04-01T16:22:54.340Z,77.62
2023-04-01T16:26:07.107Z,77.55
2023-04-01T16:29:09.297Z,77.43
2023-04-01T16:32:37.910Z,77.39
2023-04-01T16:36:09.479Z,78.64
2023-04-01T16:39:28.603Z,78.77
2023-04-01T16:42:36.719Z,77.88
2023-04-01T16:46:26.879Z,78.16
2023-04-01T16:49:37.463Z,77.91
2023-04-01T16:52:54.801Z,78.42
2023-04-01T16:56:02.857Z,78.83
2023-04-01T16:59:16.082Z,79.44
2023-04-01T17:02:21.571Z,80.41
2023-04-01T17:05:54.309Z,79.80
2023-04-01T17:09:33.785Z,80.11
2023-04-01T17:12:53.858Z,80.43
2023-04-01T17:16:15.256Z,79.96
2023-04-01T17:19:29.936Z,79.95
2023-04-01T17:22:50.436Z,80.25
2023-04-01T17:26:34.274Z,80.56
2023-04-01T17:30:05.890Z,80.68
2023-04-01T17:33:20.038Z,80.93
2023-04-01T17:36:46.799Z,81.50
2023-04-01T17:40:24.370Z,81.84
2023-04-01T17:43:48.075Z,82.25
2023-04-01T17:47:12.521Z,82.57
2023-04-01T17:50:25.997Z,83.08
2023-04-01T17:53:48.989Z,83.00
2023-04-01T17:57:03.991Z,83.40
2023-04-01T18:00:20.808Z,83.52
2023-04-01T18:03:42.797Z,83.70
2023-04-01T18:07:03.872Z,84.01
2023-04-01T18:10:26.347Z,84.21
2023-04-01T18:13:42.605Z,84.53
2023-04-01T18:17:05.042Z,84.53
2023-04-01T18:20:45.873Z,84.84
2023-04-01T18:24:02.919Z,84.91
2023-04-01T18:27:32.143Z,85.19
2023-04-01T18:30:37.084Z,85.30
2023-04-01T18:33:54.655Z,85.34
2023-04-01T18:37:14.963Z,85.28
2023-04-01T18:40:26.551Z,84.94
2023-04-01T18:43:57.261Z,84.79
2023-04-01T18:47:17.086Z,84.71
2023-04-01T18:50:58.083Z,84.15
2023-04-01T18:54:34.241Z,84.27
2023-04-01T18:57:51.809Z,84.51
2023-04-01T19:01:12.828Z,84.31
2023-04-01T19:04:39.892Z,84.18
2023-04-01T19:07:47.113Z,84.13
2023-04-01T19:10:58.048Z,83.94
2023-04-01T19:14:00.345Z,83.81
2023-04-01T19:17:20.949Z,83.85
2023-04-01T19:20:26.800Z,83.37
2023-04-01T19:23:51.158Z,84.11
2023-04-01T19:27:19.246Z,83.84
2023-04-01T19:30:53.791Z,84.12
2023-04-01T19:34:22.839Z,84.35
2023-04-01T19:37:52.886Z,84.55
2023-04-01T19:40:57.650Z,84.77
2023-04-01T19:44:18.586Z,85.04
2023-04-01T19:47:23.610Z,85.08
2023-04-01T19:50:48.839Z,85.23
2023-04-01T19:54:18.104Z,85.56
2023-04-01T19:57:51.816Z,85.59
2023-04-01T20:00:59.017Z,85.48
2023-04-01T20:04:10.008Z,85.68
2023-04-01T20:07:44.805Z,85.42
2023-04-01T20:10:53.304Z,85.22
2023-04-01T20:14:31.112Z,85.52
2023-04-01T20:17:44.484Z,85.35
2023-04-01T20:21:15.524Z,85.18
2023-04-01T20:24:47.685Z,85.54
2023-04-01T20:28:05.342Z,85.14
2023-04-01T20:31:32.152Z,84.97
2023-04-01T20:34:57.791Z,85.17
2023-04-01T20:38:21.498Z,85.11
2023-04-01T20:41:23.720Z,84.91
2023-04-01T20:44:49.265Z,85.42
2023-04-01T20:47:57.352Z,85.20
2023-04-01T20:51:19.302Z,85.18
2023-04-01T20:54:42.420Z,85.32
2023-04-01T20:57:57.090Z,85.03
2023-04-01T21:01:28.318Z,87.36
2023-04-01T21:05:08.996Z,88.04
2023-04-01T21:08:29.394Z,88.55
2023-04-01T21:12:16.049Z,88.59
2023-04-01T21:15:27.058Z,88.43
2023-04-01T21:19:00.116Z,89.47
2023-04-01T21:22:35.649Z,89.34
2023-04-01T21:26:09.958Z,89.66
2023-04-01T21:29:26.982Z,89.35
2023-04-01T21:32:40.088Z,88.76
2023-04-01T21:36:09.109Z,88.21
2023-04-01T21:39:28.046Z,88.14
2023-04-01T21:42:58.082Z,86.95
2023-04-01T21:46:37.005Z,87.01
2023-04-01T21:50:00.930Z,86.59
2023-04-01T21:53:39.733Z,86.50
2023-04-01T21:57:23.508Z,87.04
2023-04-01T22:00:34.728Z,87.62
2023-04-01T22:04:11.934Z,89.90
2023-04-01T22:07:21.243Z,90.11
2023-04-01T22:10:27.498Z,92.35
2023-04-01T22:13:50.434Z,92.01
2023-04-01T22:17:14.708Z,91.94
2023-04-01T22:20:46.327Z,92.88
2023-04-01T22:23:55.460Z,92.70
2023-04-01T22:27:08.665Z,91.75
2023-04-01T22:30:24.709Z,90.78
2023-04-01T22:33:48.325Z,90.33
2023-04-01T22:37:10.000Z,90.52
2023-04-01T22:40:22.654Z,90.80
2023-04-01T22:43:44.989Z,91.57
2023-04-01T22:47:16.068Z,91.90
2023-04-01T22:50:23.955Z,91.83
2023-04-01T22:53:47.087Z,92.23
2023-04-01T22:56:54.521Z,94.00
2023-04-01T23:00:00.181Z,93.89
2023-04-01T23:03:26.600Z,94.88
2023-04-01T23:06:42.381Z,93.46
2023-04-01T23:09:44.972Z,92.46
2023-04-01T23:12:48.461Z,91.74
2023-04-01T23:15:53.940Z,91.87
2023-04-01T23:19:22.187Z,90.73
2023-04-01T23:22:33.234Z,90.55
2023-04-01T23:25:47.575Z,90.14
2023-04-01T23:28:58.065Z,90.23
2023-04-01T23:32:05.318Z,90.32
2023-04-01T23:35:17.977Z,90.70
2023-04-01T23:38:23.546Z,90.66
2023-04-01T23:41:31.778Z,90.19
2023-04-01T23:44:36.183Z,90.45
2023-04-01T23:47:42.313Z,90.69
2023-04-01T23:50:45.480Z,90.57
2023-04-01T23:53:49.187Z,89.98
2023-04-01T23:56:56.532Z,89.99
